createdAt,value
2019-04-01T00:01:02.551Z,16.40
2019-04-01T00:03:32.201Z,17.37
2019-04-01T00:06:01.840Z,16.97
2019-04-01T00:08:31.443Z,16.80
2019-04-01T00:11:01.032Z,16.80
2019-04-01T00:13:30.555Z,18.47
2019-04-01T00:16:00.383Z,17.67
2019-04-01T00:18:29.905Z,18.23
2019-04-01T00:21:01.141Z,17.50
2019-04-01T00:23:30.760Z,16.90
2019-04-01T00:26:00.555Z,18.17
2019-04-01T00:28:30.123Z,17.60
2019-04-01T00:31:02.219Z,16.63
2019-04-01T00:33:31.756Z,17.20
2019-04-01T00:36:01.643Z,16.83
2019-04-01T00:38:31.250Z,17.33
2019-04-01T00:41:01.081Z,18.13
2019-04-01T00:43:58.983Z,17.80
2019-04-01T00:46:29.211Z,16.90
2019-04-01T00:48:58.951Z,17.17
2019-04-01T00:51:29.590Z,20.00
2019-04-01T00:53:59.192Z,19.57
2019-04-01T00:56:28.847Z,19.70
2019-04-01T00:58:58.557Z,18.83
2019-04-01T01:01:28.167Z,18.93
2019-04-01T01:03:57.726Z,17.63
2019-04-01T01:06:27.484Z,17.70
2019-04-01T01:08:57.103Z,17.47
2019-04-01T01:11:28.811Z,18.03
2019-04-01T01:13:58.469Z,17.70
2019-04-01T01:16:29.206Z,18.03
2019-04-01T01:18:58.984Z,17.20
2019-04-01T01:21:28.670Z,17.60
2019-04-01T01:23:58.354Z,18.70
2019-04-01T01:26:28.292Z,18.50
2019-04-01T01:28:58.121Z,18.63
2019-04-01T01:31:27.848Z,17.73
2019-04-01T01:33:57.421Z,18.03
2019-04-01T01:36:27.271Z,18.07
2019-04-01T01:38:56.839Z,18.43
2019-04-01T01:41:26.655Z,17.60
2019-04-01T01:43:56.271Z,17.53
2019-04-01T01:46:25.974Z,17.70
2019-04-01T01:48:55.598Z,18.10
2019-04-01T01:51:25.284Z,20.17
2019-04-01T01:53:54.883Z,16.83
2019-04-01T01:56:24.853Z,18.03
2019-04-01T01:58:54.515Z,18.50
2019-04-01T02:01:24.230Z,17.20
2019-04-01T02:03:53.947Z,17.00
2019-04-01T02:06:23.542Z,18.23
2019-04-01T02:08:53.360Z,17.37
2019-04-01T02:11:22.978Z,18.00
2019-04-01T02:13:52.680Z,18.20
2019-04-01T02:16:22.369Z,17.33
2019-04-01T02:18:52.186Z,17.53
2019-04-01T02:21:21.883Z,17.17
2019-04-01T02:23:51.723Z,18.00
2019-04-01T02:26:22.708Z,18.23
2019-04-01T02:28:52.368Z,18.57
2019-04-01T02:31:46.661Z,18.00
2019-04-01T02:34:17.108Z,19.97
2019-04-01T02:36:46.682Z,17.53
2019-04-01T02:39:19.511Z,18.60
2019-04-01T02:41:49.324Z,19.50
2019-04-01T02:44:18.935Z,18.43
2019-04-01T02:46:48.554Z,18.87
2019-04-01T02:49:18.944Z,19.30
2019-04-01T02:51:48.540Z,19.67
2019-04-01T02:54:18.242Z,19.13
2019-04-01T02:56:47.839Z,18.13
2019-04-01T02:59:17.645Z,17.93
2019-04-01T03:01:47.316Z,18.50
2019-04-01T03:04:25.198Z,18.10
2019-04-01T03:06:54.967Z,19.23
2019-04-01T03:09:24.677Z,18.17
2019-04-01T03:11:54.301Z,17.40
2019-04-01T03:14:23.941Z,17.10
2019-04-01T03:16:53.749Z,18.10
2019-04-01T03:19:23.630Z,17.57
2019-04-01T03:21:53.307Z,17.87
2019-04-01T03:24:23.901Z,15.97
2019-04-01T03:26:53.982Z,16.53
2019-04-01T03:29:23.847Z,16.87
2019-04-01T03:31:53.575Z,18.93
2019-04-01T03:34:23.261Z,17.20
2019-04-01T03:36:52.960Z,16.27
2019-04-01T03:39:22.750Z,16.70
2019-04-01T03:41:52.432Z,16.50
2019-04-01T03:44:22.217Z,17.67
2019-04-01T03:46:51.965Z,18.43
2019-04-01T03:49:22.707Z,17.17
2019-04-01T03:51:52.371Z,16.83
2019-04-01T03:54:22.456Z,19.40
2019-04-01T03:56:52.240Z,16.60
2019-04-01T03:59:22.051Z,17.80
2019-04-01T04:01:51.666Z,16.60
2019-04-01T04:04:21.991Z,16.80
2019-04-01T04:06:51.620Z,17.70
2019-04-01T04:09:21.513Z,16.27
2019-04-01T04:11:51.219Z,16.80
2019-04-01T04:14:21.047Z,17.63
2019-04-01T04:16:50.750Z,17.60
2019-04-01T04:19:21.354Z,17.87
2019-04-01T04:21:51.103Z,18.33
2019-04-01T04:24:21.079Z,17.80
2019-04-01T04:26:50.784Z,17.43
2019-04-01T04:29:20.715Z,17.77
2019-04-01T04:31:52.088Z,17.13
2019-04-01T04:34:22.495Z,18.27
2019-04-01T04:36:52.193Z,18.03
2019-04-01T04:39:21.906Z,18.00
2019-04-01T04:41:51.537Z,17.10
2019-04-01T04:44:21.362Z,17.50
2019-04-01T04:46:51.018Z,18.00
2019-04-01T04:49:23.842Z,16.40
2019-04-01T04:51:53.566Z,17.40
2019-04-01T04:54:23.245Z,17.03
2019-04-01T04:56:52.944Z,16.90
2019-04-01T04:59:23.272Z,17.93
2019-04-01T05:01:52.867Z,15.90
2019-04-01T05:04:24.430Z,17.13
2019-04-01T05:06:54.089Z,15.33
2019-04-01T05:09:23.956Z,17.00
2019-04-01T05:11:53.478Z,16.57
2019-04-01T05:14:23.259Z,16.80
2019-04-01T05:16:52.943Z,16.30
2019-04-01T05:19:24.973Z,16.30
2019-04-01T05:21:55.652Z,16.17
2019-04-01T05:24:25.484Z,16.23
2019-04-01T05:26:55.316Z,16.53
2019-04-01T05:29:25.956Z,16.17
2019-04-01T05:31:56.936Z,16.50
2019-04-01T05:34:29.219Z,17.33
2019-04-01T05:36:58.935Z,15.37
2019-04-01T05:39:28.550Z,17.00
2019-04-01T05:41:58.484Z,17.00
2019-04-01T05:44:28.193Z,16.07
2019-04-01T05:46:58.009Z,15.40
2019-04-01T05:49:29.205Z,19.27
2019-04-01T05:51:59.039Z,17.77
2019-04-01T05:54:28.771Z,15.37
2019-04-01T05:56:58.541Z,15.70
2019-04-01T05:59:28.231Z,17.50
2019-04-01T06:01:58.086Z,18.73
2019-04-01T06:04:28.749Z,20.60
2019-04-01T06:06:59.069Z,19.70
2019-04-01T06:09:29.004Z,23.07
2019-04-01T06:11:58.673Z,17.47
2019-04-01T06:14:28.336Z,17.73
2019-04-01T06:16:58.227Z,17.70
2019-04-01T06:19:28.766Z,17.40
2019-04-01T06:21:58.630Z,16.50
2019-04-01T06:24:28.477Z,16.70
2019-04-01T06:26:58.611Z,17.53
2019-04-01T06:29:28.239Z,16.67
2019-04-01T06:31:58.545Z,16.47
2019-04-01T06:34:30.108Z,16.87
2019-04-01T06:36:59.948Z,15.63
2019-04-01T06:39:29.611Z,15.47
2019-04-01T06:41:59.408Z,15.37
2019-04-01T06:44:29.172Z,15.70
2019-04-01T06:46:58.871Z,16.03
2019-04-01T06:49:31.778Z,15.93
2019-04-01T06:52:01.647Z,15.23
2019-04-01T06:54:31.384Z,14.47
2019-04-01T06:57:01.318Z,15.07
2019-04-01T06:59:31.052Z,14.70
2019-04-01T07:02:01.383Z,14.77
2019-04-01T07:04:31.943Z,15.23
2019-04-01T07:07:01.797Z,15.93
2019-04-01T07:09:31.487Z,13.83
2019-04-01T07:12:01.323Z,15.27
2019-04-01T07:14:31.016Z,15.70
2019-04-01T07:17:01.357Z,14.47
2019-04-01T07:19:31.338Z,16.07
2019-04-01T07:22:01.575Z,14.97
2019-04-01T07:24:31.183Z,16.57
2019-04-01T07:27:00.851Z,16.57
2019-04-01T07:29:30.468Z,17.67
2019-04-01T07:32:00.080Z,15.13
2019-04-01T07:34:31.174Z,17.00
2019-04-01T07:37:01.586Z,14.67
2019-04-01T07:39:31.894Z,14.30
2019-04-01T07:42:02.396Z,14.00
2019-04-01T07:44:32.784Z,15.13
2019-04-01T07:47:03.190Z,14.73
2019-04-01T07:49:35.504Z,13.90
2019-04-01T07:52:05.849Z,14.00
2019-04-01T07:54:36.175Z,14.07
2019-04-01T07:57:06.514Z,13.33
2019-04-01T07:59:37.096Z,13.43
2019-04-01T08:02:07.440Z,15.10
2019-04-01T08:04:38.536Z,13.93
2019-04-01T08:07:08.956Z,13.77
2019-04-01T08:09:39.590Z,14.53
2019-04-01T08:12:09.995Z,12.73
2019-04-01T08:14:40.444Z,14.90
2019-04-01T08:17:13.312Z,14.57
2019-04-01T08:19:46.528Z,13.20
2019-04-01T08:22:17.059Z,13.90
2019-04-01T08:24:47.316Z,13.73
2019-04-01T08:27:17.884Z,13.93
2019-04-01T08:29:48.352Z,12.70
2019-04-01T08:32:18.905Z,12.53
2019-04-01T08:34:53.207Z,12.90
2019-04-01T08:37:23.843Z,13.43
2019-04-01T08:39:54.453Z,13.33
2019-04-01T08:42:25.046Z,13.13
2019-04-01T08:44:55.531Z,13.33
2019-04-01T08:47:26.956Z,13.60
2019-04-01T08:49:57.351Z,13.67
2019-04-01T08:52:27.860Z,12.90
2019-04-01T08:54:58.378Z,13.47
2019-04-01T08:57:28.945Z,12.73
2019-04-01T09:00:00.379Z,13.37
2019-04-01T09:02:30.954Z,13.10
2019-04-01T09:05:01.473Z,12.20
2019-04-01T09:07:31.818Z,12.30
2019-04-01T09:10:04.783Z,12.60
2019-04-01T09:12:38.672Z,13.07
2019-04-01T09:15:09.313Z,14.10
2019-04-01T09:17:40.558Z,11.87
2019-04-01T09:20:11.564Z,12.80
2019-04-01T09:22:42.180Z,12.10
2019-04-01T09:25:12.655Z,13.63
2019-04-01T09:27:43.128Z,13.07
2019-04-01T09:30:13.951Z,13.07
2019-04-01T09:32:44.751Z,12.30
2019-04-01T09:35:15.901Z,12.17
2019-04-01T09:37:46.498Z,10.80
2019-04-01T09:40:18.228Z,12.40
2019-04-01T09:42:48.739Z,12.10
2019-04-01T09:45:19.373Z,12.40
2019-04-01T09:47:49.692Z,12.87
2019-04-01T09:50:20.079Z,12.43
2019-04-01T09:52:50.491Z,12.23
2019-04-01T09:55:20.889Z,11.80
2019-04-01T09:57:51.347Z,11.73
2019-04-01T10:00:21.836Z,11.73
2019-04-01T10:02:52.410Z,12.53
2019-04-01T10:05:22.718Z,12.77
2019-04-01T10:07:53.013Z,12.57
2019-04-01T10:10:23.386Z,12.17
2019-04-01T10:12:53.767Z,12.70
2019-04-01T10:15:24.199Z,12.60
2019-04-01T10:17:54.815Z,12.60
2019-04-01T10:20:25.067Z,12.33
2019-04-01T10:22:55.393Z,12.37
2019-04-01T10:25:28.000Z,12.87
2019-04-01T10:28:01.364Z,13.80
2019-04-01T10:30:31.675Z,12.70
2019-04-01T10:33:02.675Z,12.97
2019-04-01T10:35:33.475Z,16.27
2019-04-01T10:38:04.070Z,13.50
2019-04-01T10:40:34.550Z,13.87
2019-04-01T10:43:05.398Z,13.53
2019-04-01T10:45:35.827Z,13.47
2019-04-01T10:48:06.488Z,13.10
2019-04-01T10:50:36.856Z,13.70
2019-04-01T10:53:07.288Z,15.08
2019-04-01T10:55:37.612Z,29.37
2019-04-01T10:58:08.551Z,31.23
2019-04-01T11:00:39.036Z,19.83
2019-04-01T11:03:09.731Z,27.93
2019-04-01T11:05:40.162Z,22.73
2019-04-01T11:08:11.975Z,26.40
2019-04-01T11:10:42.483Z,16.07
2019-04-01T11:13:12.908Z,13.53
2019-04-01T11:15:44.624Z,13.67
2019-04-01T11:18:15.321Z,13.17
2019-04-01T11:20:45.666Z,14.33
2019-04-01T11:23:16.532Z,13.37
2019-04-01T11:25:46.876Z,14.27
2019-04-01T11:28:17.276Z,13.03
2019-04-01T11:30:47.832Z,13.33
2019-04-01T11:33:18.352Z,13.93
2019-04-01T11:35:48.780Z,13.00
2019-04-01T11:38:19.203Z,14.53
2019-04-01T11:40:49.696Z,13.73
2019-04-01T11:43:20.180Z,12.97
2019-04-01T11:45:50.825Z,12.93
2019-04-01T11:48:21.390Z,13.03
2019-04-01T11:50:51.992Z,12.30
2019-04-01T11:53:23.903Z,13.07
2019-04-01T11:55:54.381Z,12.83
2019-04-01T11:58:24.761Z,13.40
2019-04-01T12:00:55.262Z,14.50
2019-04-01T12:03:25.642Z,13.53
2019-04-01T12:05:56.129Z,12.57
2019-04-01T12:08:26.932Z,14.55
2019-04-01T12:10:58.657Z,14.00
2019-04-01T12:13:29.256Z,14.57
2019-04-01T12:15:59.671Z,27.87
2019-04-01T12:18:30.177Z,32.17
2019-04-01T12:21:01.735Z,31.27
2019-04-01T12:23:32.114Z,19.77
2019-04-01T12:26:14.526Z,14.50
2019-04-01T12:28:36.577Z,13.80
2019-04-01T12:31:06.824Z,15.83
2019-04-01T12:33:37.317Z,34.10
2019-04-01T12:36:11.472Z,16.57
2019-04-01T12:38:40.301Z,30.07
2019-04-01T12:41:10.811Z,12.30
2019-04-01T12:43:41.310Z,18.47
2019-04-01T12:46:11.835Z,16.70
2019-04-01T12:48:42.249Z,16.67
2019-04-01T12:51:12.740Z,12.80
2019-04-01T12:53:43.238Z,16.20
2019-04-01T12:56:13.797Z,10.77
2019-04-01T12:58:44.323Z,11.13
2019-04-01T13:01:14.894Z,10.63
2019-04-01T13:03:45.195Z,11.40
2019-04-01T13:06:18.795Z,10.63
2019-04-01T13:08:49.411Z,12.57
2019-04-01T13:11:27.483Z,11.03
2019-04-01T13:13:58.141Z,10.80
2019-04-01T13:16:28.624Z,10.87
2019-04-01T13:18:59.111Z,9.77
2019-04-01T13:21:29.687Z,10.20
2019-04-01T13:24:00.223Z,13.30
2019-04-01T13:26:31.104Z,10.83
2019-04-01T13:29:01.425Z,10.03
2019-04-01T13:31:34.811Z,10.30
2019-04-01T13:34:05.250Z,10.40
2019-04-01T13:36:35.766Z,10.73
2019-04-01T13:39:08.232Z,11.87
2019-04-01T13:41:42.612Z,10.57
2019-04-01T13:44:10.918Z,10.70
2019-04-01T13:46:42.374Z,9.43
2019-04-01T13:49:12.824Z,10.77
2019-04-01T13:51:43.904Z,11.73
2019-04-01T13:54:14.389Z,11.10
2019-04-01T13:56:44.856Z,18.70
2019-04-01T13:59:17.520Z,37.77
2019-04-01T14:01:47.257Z,37.47
2019-04-01T14:04:17.590Z,21.60
2019-04-01T14:06:48.161Z,32.43
2019-04-01T14:09:18.619Z,22.37
2019-04-01T14:11:49.133Z,46.77
2019-04-01T14:14:23.418Z,40.00
2019-04-01T14:16:53.977Z,51.63
2019-04-01T14:19:33.437Z,48.23
2019-04-01T14:22:03.931Z,34.43
2019-04-01T14:24:34.251Z,26.67
2019-04-01T14:27:04.680Z,24.27
2019-04-01T14:29:36.523Z,25.90
2019-04-01T14:32:07.123Z,24.10
2019-04-01T14:34:37.431Z,32.60
2019-04-01T14:37:09.753Z,27.80
2019-04-01T14:39:39.933Z,15.73
2019-04-01T14:42:10.369Z,18.40
2019-04-01T14:44:40.717Z,15.70
2019-04-01T14:47:11.170Z,18.23
2019-04-01T14:49:41.441Z,17.33
2019-04-01T14:52:12.073Z,15.33
2019-04-01T14:54:42.383Z,18.23
2019-04-01T14:57:12.887Z,18.90
2019-04-01T14:59:43.254Z,15.73
2019-04-01T15:02:13.682Z,14.70
2019-04-01T15:04:44.019Z,16.90
2019-04-01T15:07:18.386Z,15.70
2019-04-01T15:09:47.902Z,13.37
2019-04-01T15:12:17.590Z,15.33
2019-04-01T15:14:47.238Z,11.87
2019-04-01T15:17:17.499Z,11.87
2019-04-01T15:19:48.654Z,12.50
2019-04-01T15:22:18.676Z,13.27
2019-04-01T15:24:48.220Z,12.15
2019-04-01T15:27:18.081Z,9.77
2019-04-01T15:29:47.750Z,9.20
2019-04-01T15:32:17.411Z,9.40
2019-04-01T15:34:46.949Z,9.93
2019-04-01T15:37:16.627Z,9.43
2019-04-01T15:39:47.326Z,12.40
2019-04-01T15:42:17.475Z,22.33
2019-04-01T15:44:47.861Z,19.00
2019-04-01T15:47:17.870Z,21.07
2019-04-01T15:49:47.545Z,14.03
2019-04-01T15:52:17.464Z,39.80
2019-04-01T15:54:48.481Z,10.60
2019-04-01T15:57:18.367Z,47.98
2019-04-01T15:59:48.046Z,96.77
2019-04-01T16:02:18.087Z,63.50
2019-04-01T16:04:47.763Z,53.13
2019-04-01T16:07:17.597Z,55.60
2019-04-01T16:09:47.295Z,36.43
2019-04-01T16:12:17.022Z,23.13
2019-04-01T16:14:46.620Z,22.43
2019-04-01T16:17:16.442Z,21.97
2019-04-01T16:19:46.969Z,18.50
2019-04-01T16:22:16.802Z,13.90
2019-04-01T16:24:46.581Z,15.67
2019-04-01T16:27:19.511Z,15.93
2019-04-01T16:29:49.218Z,14.47
2019-04-01T16:32:19.110Z,13.50
2019-04-01T16:34:48.790Z,13.70
2019-04-01T16:37:18.536Z,12.30
2019-04-01T16:39:48.904Z,13.93
2019-04-01T16:42:19.495Z,13.90
2019-04-01T16:44:49.615Z,13.57
2019-04-01T16:47:19.361Z,14.18
2019-04-01T16:49:49.079Z,64.03
2019-04-01T16:52:18.937Z,47.20
2019-04-01T16:54:58.326Z,54.43
2019-04-01T16:57:28.209Z,99.43
2019-04-01T16:59:58.070Z,72.07
2019-04-01T17:02:28.612Z,119.40
2019-04-01T17:05:00.308Z,38.93
2019-04-01T17:07:30.092Z,21.50
2019-04-01T17:10:00.395Z,43.13
2019-04-01T17:12:30.037Z,32.63
2019-04-01T17:15:03.258Z,22.77
2019-04-01T17:17:31.186Z,18.20
2019-04-01T17:20:00.997Z,13.83
2019-04-01T17:22:31.276Z,12.50
2019-04-01T17:25:05.826Z,13.73
2019-04-01T17:27:35.639Z,11.73
2019-04-01T17:30:06.275Z,10.83
2019-04-01T17:32:35.897Z,11.07
2019-04-01T17:35:07.329Z,9.97
2019-04-01T17:37:37.993Z,9.87
2019-04-01T17:40:09.532Z,9.13
2019-04-01T17:42:39.471Z,8.77
2019-04-01T17:45:15.679Z,9.67
2019-04-01T17:47:45.299Z,9.37
2019-04-01T17:50:16.135Z,10.07
2019-04-01T17:52:45.785Z,10.20
2019-04-01T17:55:17.665Z,10.37
2019-04-01T17:57:47.311Z,9.90
2019-04-01T18:00:21.013Z,12.07
2019-04-01T18:02:50.657Z,13.83
2019-04-01T18:05:20.957Z,13.40
2019-04-01T18:07:50.654Z,12.67
2019-04-01T18:10:20.463Z,13.50
2019-04-01T18:12:51.039Z,11.47
2019-04-01T18:15:21.592Z,12.97
2019-04-01T18:17:51.353Z,14.30
2019-04-01T18:20:21.148Z,15.37
2019-04-01T18:22:51.017Z,12.10
2019-04-01T18:25:21.198Z,14.40
2019-04-01T18:27:51.437Z,10.90
2019-04-01T18:30:22.749Z,14.10
2019-04-01T18:32:55.277Z,14.23
2019-04-01T18:35:25.317Z,11.43
2019-04-01T18:37:54.952Z,11.97
2019-04-01T18:40:32.632Z,11.77
2019-04-01T18:42:55.950Z,12.17
2019-04-01T18:45:25.689Z,12.30
2019-04-01T18:47:55.350Z,12.40
2019-04-01T18:50:24.967Z,13.40
2019-04-01T18:52:54.767Z,16.60
2019-04-01T18:55:24.375Z,14.50
2019-04-01T18:57:54.050Z,12.60
2019-04-01T19:00:23.689Z,12.77
2019-04-01T19:02:55.517Z,18.60
2019-04-01T19:05:24.875Z,12.50
2019-04-01T19:07:54.534Z,11.67
2019-04-01T19:10:26.909Z,15.43
2019-04-01T19:13:05.600Z,13.13
2019-04-01T19:15:28.718Z,15.27
2019-04-01T19:17:59.627Z,15.57
2019-04-01T19:20:30.525Z,13.33
2019-04-01T19:23:02.012Z,12.43
2019-04-01T19:25:31.983Z,10.63
2019-04-01T19:28:01.674Z,15.13
2019-04-01T19:30:31.747Z,15.87
2019-04-01T19:33:01.643Z,14.10
2019-04-01T19:35:33.031Z,16.00
2019-04-01T19:38:02.963Z,11.57
2019-04-01T19:40:32.609Z,11.80
2019-04-01T19:43:03.678Z,11.90
2019-04-01T19:45:33.937Z,10.37
2019-04-01T19:48:03.878Z,11.40
2019-04-01T19:50:33.849Z,12.00
2019-04-01T19:53:03.590Z,11.13
2019-04-01T19:55:34.133Z,11.03
2019-04-01T19:58:05.250Z,10.83
2019-04-01T20:00:35.172Z,15.83
2019-04-01T20:03:05.174Z,13.63
2019-04-01T20:05:34.773Z,16.10
2019-04-01T20:08:04.491Z,14.07
2019-04-01T20:10:34.707Z,14.33
2019-04-01T20:13:05.427Z,13.27
2019-04-01T20:15:35.374Z,14.57
2019-04-01T20:18:05.422Z,14.03
2019-04-01T20:20:35.147Z,15.67
2019-04-01T20:23:05.383Z,12.80
2019-04-01T20:25:35.018Z,15.83
2019-04-01T20:28:07.712Z,14.70
2019-04-01T20:30:38.068Z,16.00
2019-04-01T20:33:17.048Z,16.23
2019-04-01T20:35:38.218Z,13.50
2019-04-01T20:38:07.947Z,14.40
2019-04-01T20:40:37.687Z,15.07
2019-04-01T20:43:07.679Z,12.27
2019-04-01T20:45:37.465Z,15.83
2019-04-01T20:48:07.559Z,15.93
2019-04-01T20:50:37.113Z,13.83
2019-04-01T20:53:06.855Z,12.50
2019-04-01T20:55:47.685Z,16.23
2019-04-01T20:58:08.590Z,13.67
2019-04-01T21:00:38.752Z,12.93
2019-04-01T21:03:09.762Z,15.03
2019-04-01T21:05:39.373Z,11.90
2019-04-01T21:08:12.159Z,15.83
2019-04-01T21:10:42.339Z,22.03
2019-04-01T21:13:13.210Z,14.67
2019-04-01T21:15:42.942Z,11.10
2019-04-01T21:18:12.755Z,10.77
2019-04-01T21:20:42.663Z,11.30
2019-04-01T21:23:12.311Z,11.20
2019-04-01T21:25:41.887Z,10.30
2019-04-01T21:28:12.283Z,10.73
2019-04-01T21:30:45.127Z,10.63
2019-04-01T21:33:15.193Z,10.93
2019-04-01T21:35:54.703Z,11.27
2019-04-01T21:38:25.709Z,11.03
2019-04-01T21:40:56.450Z,11.60
2019-04-01T21:43:27.137Z,11.07
2019-04-01T21:45:56.797Z,15.97
2019-04-01T21:48:26.655Z,14.20
2019-04-01T21:50:56.388Z,12.47
2019-04-01T21:53:26.321Z,11.90
2019-04-01T21:55:56.044Z,21.03
2019-04-01T21:58:27.742Z,25.97
2019-04-01T22:00:58.674Z,41.23
2019-04-01T22:03:28.698Z,26.60
2019-04-01T22:05:58.509Z,16.97
2019-04-01T22:08:28.268Z,20.47
2019-04-01T22:10:57.899Z,27.30
2019-04-01T22:13:27.776Z,21.20
2019-04-01T22:15:57.664Z,28.67
2019-04-01T22:18:27.534Z,19.33
2019-04-01T22:20:59.733Z,16.57
2019-04-01T22:23:29.492Z,15.50
2019-04-01T22:25:59.447Z,19.57
2019-04-01T22:28:31.039Z,13.23
2019-04-01T22:31:00.653Z,14.37
2019-04-01T22:33:30.471Z,14.20
2019-04-01T22:36:00.186Z,11.87
2019-04-01T22:38:29.852Z,14.40
2019-04-01T22:41:00.251Z,14.10
2019-04-01T22:43:30.159Z,12.63
2019-04-01T22:45:59.998Z,14.60
2019-04-01T22:48:29.756Z,16.07
2019-04-01T22:50:59.544Z,15.07
2019-04-01T22:53:29.305Z,14.73
2019-04-01T22:55:58.992Z,14.27
2019-04-01T22:58:31.488Z,14.00
2019-04-01T23:01:01.048Z,13.80
2019-04-01T23:03:30.722Z,12.73
2019-04-01T23:06:00.547Z,13.50
2019-04-01T23:08:31.067Z,13.53
2019-04-01T23:11:01.023Z,13.20
2019-04-01T23:13:31.079Z,12.50
2019-04-01T23:16:00.889Z,13.27
2019-04-01T23:18:30.611Z,12.83
2019-04-01T23:21:01.266Z,13.63
2019-04-01T23:23:31.852Z,12.20
2019-04-01T23:26:01.711Z,13.00
2019-04-01T23:28:31.330Z,12.97
2019-04-01T23:31:01.029Z,13.27
2019-04-01T23:33:30.701Z,14.53
2019-04-01T23:36:00.385Z,13.90
2019-04-01T23:38:30.103Z,14.90
2019-04-01T23:41:01.118Z,14.13
2019-04-01T23:43:30.824Z,15.30
2019-04-01T23:46:00.535Z,14.73
2019-04-01T23:48:30.444Z,12.53
2019-04-01T23:51:00.087Z,13.93
2019-04-01T23:53:31.247Z,14.17
2019-04-01T23:56:01.020Z,14.30
2019-04-01T23:58:30.607Z,13.13
